sensor_id;sensor_type;location;lat;lon;timestamp;pressure;altitude;pressure_sealevel;temperature;humidity
57250;BME280;43102;52.014;-0.680;2023-03-15T00:00:02;100485;;;4.40;73.78
57250;BME280;43102;52.014;-0.680;2023-03-15T00:01:01;100485;;;4.40;73.78
57250;BME280;43102;52.014;-0.680;2023-03-15T00:02:00;100485;;;4.40;73.78
57250;BME280;43102;52.014;-0.680;2023-03-15T00:03:00;100489;;;4.37;73.75
57250;BME280;43102;52.014;-0.680;2023-03-15T00:04:00;100489;;;4.37;73.75
57250;BME280;43102;52.014;-0.680;2023-03-15T00:05:00;100489;;;4.37;73.75
57250;BME280;43102;52.014;-0.680;2023-03-15T00:06:00;100489;;;4.37;73.75
57250;BME280;43102;52.014;-0.680;2023-03-15T00:07:00;100489;;;4.37;73.75
57250;BME280;43102;52.014;-0.680;2023-03-15T00:08:00;100486;;;4.32;73.87
57250;BME280;43102;52.014;-0.680;2023-03-15T00:09:00;100486;;;4.32;73.87
57250;BME280;43102;52.014;-0.680;2023-03-15T00:10:00;100486;;;4.32;73.87
57250;BME280;43102;52.014;-0.680;2023-03-15T00:11:00;100486;;;4.32;73.87
57250;BME280;43102;52.014;-0.680;2023-03-15T00:12:00;100486;;;4.32;73.87
57250;BME280;43102;52.014;-0.680;2023-03-15T00:13:00;100493;;;4.32;73.91
57250;BME280;43102;52.014;-0.680;2023-03-15T00:14:00;100493;;;4.32;73.91
57250;BME280;43102;52.014;-0.680;2023-03-15T00:15:00;100493;;;4.32;73.91
57250;BME280;43102;52.014;-0.680;2023-03-15T00:16:00;100493;;;4.32;73.91
57250;BME280;43102;52.014;-0.680;2023-03-15T00:17:00;100493;;;4.32;73.91
57250;BME280;43102;52.014;-0.680;2023-03-15T00:18:00;100500;;;4.30;73.99
57250;BME280;43102;52.014;-0.680;2023-03-15T00:19:00;100500;;;4.30;73.99
57250;BME280;43102;52.014;-0.680;2023-03-15T00:20:00;100500;;;4.30;73.99
57250;BME280;43102;52.014;-0.680;2023-03-15T00:21:00;100500;;;4.30;73.99
57250;BME280;43102;52.014;-0.680;2023-03-15T00:22:00;100500;;;4.30;73.99
57250;BME280;43102;52.014;-0.680;2023-03-15T00:23:00;100513;;;4.29;73.95
57250;BME280;43102;52.014;-0.680;2023-03-15T00:24:00;100513;;;4.29;73.95
57250;BME280;43102;52.014;-0.680;2023-03-15T00:25:00;100513;;;4.29;73.95
57250;BME280;43102;52.014;-0.680;2023-03-15T00:26:00;100513;;;4.29;73.95
57250;BME280;43102;52.014;-0.680;2023-03-15T00:27:00;100513;;;4.29;73.95
57250;BME280;43102;52.014;-0.680;2023-03-15T00:28:00;100517;;;4.26;74.23
57250;BME280;43102;52.014;-0.680;2023-03-15T00:29:00;100517;;;4.26;74.23
57250;BME280;43102;52.014;-0.680;2023-03-15T00:30:00;100517;;;4.26;74.23
57250;BME280;43102;52.014;-0.680;2023-03-15T00:31:02;100517;;;4.26;74.23
57250;BME280;43102;52.014;-0.680;2023-03-15T00:32:00;100517;;;4.26;74.23
57250;BME280;43102;52.014;-0.680;2023-03-15T00:33:00;100526;;;4.24;74.22
57250;BME280;43102;52.014;-0.680;2023-03-15T00:34:00;100526;;;4.24;74.22
57250;BME280;43102;52.014;-0.680;2023-03-15T00:35:00;100526;;;4.24;74.22
57250;BME280;43102;52.014;-0.680;2023-03-15T00:36:02;100526;;;4.24;74.22
57250;BME280;43102;52.014;-0.680;2023-03-15T00:37:00;100526;;;4.24;74.22
57250;BME280;43102;52.014;-0.680;2023-03-15T00:38:00;100527;;;4.21;74.17
57250;BME280;43102;52.014;-0.680;2023-03-15T00:39:00;100527;;;4.21;74.17
57250;BME280;43102;52.014;-0.680;2023-03-15T00:40:00;100527;;;4.21;74.17
57250;BME280;43102;52.014;-0.680;2023-03-15T00:41:09;100527;;;4.21;74.17
57250;BME280;43102;52.014;-0.680;2023-03-15T00:42:00;100527;;;4.21;74.17
57250;BME280;43102;52.014;-0.680;2023-03-15T00:43:00;100532;;;4.17;74.22
57250;BME280;43102;52.014;-0.680;2023-03-15T00:44:00;100532;;;4.17;74.22
57250;BME280;43102;52.014;-0.680;2023-03-15T00:45:00;100532;;;4.17;74.22
57250;BME280;43102;52.014;-0.680;2023-03-15T00:46:00;100532;;;4.17;74.22
57250;BME280;43102;52.014;-0.680;2023-03-15T00:47:00;100532;;;4.17;74.22
57250;BME280;43102;52.014;-0.680;2023-03-15T00:48:00;100533;;;4.15;74.26
57250;BME280;43102;52.014;-0.680;2023-03-15T00:49:00;100533;;;4.15;74.26
57250;BME280;43102;52.014;-0.680;2023-03-15T00:50:00;100533;;;4.15;74.26
57250;BME280;43102;52.014;-0.680;2023-03-15T00:51:01;100533;;;4.15;74.26
57250;BME280;43102;52.014;-0.680;2023-03-15T00:52:00;100533;;;4.15;74.26
57250;BME280;43102;52.014;-0.680;2023-03-15T00:53:00;100543;;;4.13;74.05
57250;BME280;43102;52.014;-0.680;2023-03-15T00:54:00;100543;;;4.13;74.05
57250;BME280;43102;52.014;-0.680;2023-03-15T00:55:00;100543;;;4.13;74.05
57250;BME280;43102;52.014;-0.680;2023-03-15T00:56:08;100543;;;4.13;74.05
57250;BME280;43102;52.014;-0.680;2023-03-15T00:57:00;100543;;;4.13;74.05
57250;BME280;43102;52.014;-0.680;2023-03-15T00:58:00;100541;;;4.09;74.21
57250;BME280;43102;52.014;-0.680;2023-03-15T00:59:00;100541;;;4.09;74.21
57250;BME280;43102;52.014;-0.680;2023-03-15T01:00:00;100541;;;4.09;74.21
57250;BME280;43102;52.014;-0.680;2023-03-15T01:01:03;100541;;;4.09;74.21
57250;BME280;43102;52.014;-0.680;2023-03-15T01:02:01;100541;;;4.09;74.21
57250;BME280;43102;52.014;-0.680;2023-03-15T01:03:00;100547;;;4.03;74.19
57250;BME280;43102;52.014;-0.680;2023-03-15T01:04:00;100547;;;4.03;74.19
57250;BME280;43102;52.014;-0.680;2023-03-15T01:05:00;100547;;;4.03;74.19
57250;BME280;43102;52.014;-0.680;2023-03-15T01:06:09;100547;;;4.03;74.19
57250;BME280;43102;52.014;-0.680;2023-03-15T01:07:00;100547;;;4.03;74.19
57250;BME280;43102;52.014;-0.680;2023-03-15T01:08:00;100555;;;3.99;74.18
57250;BME280;43102;52.014;-0.680;2023-03-15T01:09:00;100555;;;3.99;74.18
57250;BME280;43102;52.014;-0.680;2023-03-15T01:10:00;100555;;;3.99;74.18
57250;BME280;43102;52.014;-0.680;2023-03-15T01:11:01;100555;;;3.99;74.18
57250;BME280;43102;52.014;-0.680;2023-03-15T01:12:00;100555;;;3.99;74.18
57250;BME280;43102;52.014;-0.680;2023-03-15T01:13:00;100559;;;3.97;74.11
57250;BME280;43102;52.014;-0.680;2023-03-15T01:14:00;100559;;;3.97;74.11
57250;BME280;43102;52.014;-0.680;2023-03-15T01:15:01;100559;;;3.97;74.11
57250;BME280;43102;52.014;-0.680;2023-03-15T01:16:00;100559;;;3.97;74.11
57250;BME280;43102;52.014;-0.680;2023-03-15T01:17:00;100559;;;3.97;74.11
57250;BME280;43102;52.014;-0.680;2023-03-15T01:18:00;100561;;;3.95;74.21
57250;BME280;43102;52.014;-0.680;2023-03-15T01:19:00;100561;;;3.95;74.21
57250;BME280;43102;52.014;-0.680;2023-03-15T01:20:00;100561;;;3.95;74.21
57250;BME280;43102;52.014;-0.680;2023-03-15T01:21:00;100561;;;3.95;74.21
57250;BME280;43102;52.014;-0.680;2023-03-15T01:22:00;100561;;;3.95;74.21
57250;BME280;43102;52.014;-0.680;2023-03-15T01:23:00;100573;;;3.89;74.14
57250;BME280;43102;52.014;-0.680;2023-03-15T01:24:00;100573;;;3.89;74.14
57250;BME280;43102;52.014;-0.680;2023-03-15T01:25:00;100573;;;3.89;74.14
57250;BME280;43102;52.014;-0.680;2023-03-15T01:26:01;100573;;;3.89;74.14
57250;BME280;43102;52.014;-0.680;2023-03-15T01:27:00;100573;;;3.89;74.14
57250;BME280;43102;52.014;-0.680;2023-03-15T01:28:00;100571;;;3.82;74.35
57250;BME280;43102;52.014;-0.680;2023-03-15T01:29:00;100571;;;3.82;74.35
57250;BME280;43102;52.014;-0.680;2023-03-15T01:30:00;100571;;;3.82;74.35
57250;BME280;43102;52.014;-0.680;2023-03-15T01:31:00;100571;;;3.82;74.35
57250;BME280;43102;52.014;-0.680;2023-03-15T01:32:00;100571;;;3.82;74.35
57250;BME280;43102;52.014;-0.680;2023-03-15T01:33:00;100578;;;3.80;74.41
57250;BME280;43102;52.014;-0.680;2023-03-15T01:34:00;100578;;;3.80;74.41
57250;BME280;43102;52.014;-0.680;2023-03-15T01:35:00;100578;;;3.80;74.41
57250;BME280;43102;52.014;-0.680;2023-03-15T01:36:01;100578;;;3.80;74.41
57250;BME280;43102;52.014;-0.680;2023-03-15T01:37:00;100578;;;3.80;74.41
57250;BME280;43102;52.014;-0.680;2023-03-15T01:38:00;100585;;;3.76;74.37
57250;BME280;43102;52.014;-0.680;2023-03-15T01:39:00;100585;;;3.76;74.37
57250;BME280;43102;52.014;-0.680;2023-03-15T01:40:00;100585;;;3.76;74.37
57250;BME280;43102;52.014;-0.680;2023-03-15T01:41:00;100585;;;3.76;74.37
57250;BME280;43102;52.014;-0.680;2023-03-15T01:42:00;100585;;;3.76;74.37
57250;BME280;43102;52.014;-0.680;2023-03-15T01:44:00;100595;;;3.72;74.33
57250;BME280;43102;52.014;-0.680;2023-03-15T01:45:00;100595;;;3.72;74.33
57250;BME280;43102;52.014;-0.680;2023-03-15T01:46:02;100595;;;3.72;74.33
57250;BME280;43102;52.014;-0.680;2023-03-15T01:47:00;100595;;;3.72;74.33
57250;BME280;43102;52.014;-0.680;2023-03-15T01:48:00;100605;;;3.63;74.57
57250;BME280;43102;52.014;-0.680;2023-03-15T01:49:01;100605;;;3.63;74.57
57250;BME280;43102;52.014;-0.680;2023-03-15T01:50:02;100605;;;3.63;74.57
57250;BME280;43102;52.014;-0.680;2023-03-15T01:51:01;100605;;;3.63;74.57
57250;BME280;43102;52.014;-0.680;2023-03-15T01:52:02;100605;;;3.63;74.57
57250;BME280;43102;52.014;-0.680;2023-03-15T01:53:00;100613;;;3.60;74.55
57250;BME280;43102;52.014;-0.680;2023-03-15T01:55:04;100613;;;3.60;74.55
57250;BME280;43102;52.014;-0.680;2023-03-15T01:56:00;100613;;;3.60;74.55
57250;BME280;43102;52.014;-0.680;2023-03-15T01:57:01;100613;;;3.60;74.55
57250;BME280;43102;52.014;-0.680;2023-03-15T01:58:00;100629;;;3.57;74.79
57250;BME280;43102;52.014;-0.680;2023-03-15T01:59:00;100629;;;3.57;74.79
57250;BME280;43102;52.014;-0.680;2023-03-15T02:00:03;100629;;;3.57;74.79
57250;BME280;43102;52.014;-0.680;2023-03-15T02:01:00;100629;;;3.57;74.79
57250;BME280;43102;52.014;-0.680;2023-03-15T02:02:00;100629;;;3.57;74.79
57250;BME280;43102;52.014;-0.680;2023-03-15T02:03:03;100629;;;3.53;74.66
57250;BME280;43102;52.014;-0.680;2023-03-15T02:04:02;100629;;;3.53;74.66
57250;BME280;43102;52.014;-0.680;2023-03-15T02:05:02;100629;;;3.53;74.66
57250;BME280;43102;52.014;-0.680;2023-03-15T02:06:02;100629;;;3.53;74.66
57250;BME280;43102;52.014;-0.680;2023-03-15T02:07:01;100629;;;3.53;74.66
57250;BME280;43102;52.014;-0.680;2023-03-15T02:08:00;100633;;;3.56;74.64
57250;BME280;43102;52.014;-0.680;2023-03-15T02:09:02;100633;;;3.56;74.64
57250;BME280;43102;52.014;-0.680;2023-03-15T02:10:09;100633;;;3.56;74.64
57250;BME280;43102;52.014;-0.680;2023-03-15T02:11:00;100633;;;3.56;74.64
57250;BME280;43102;52.014;-0.680;2023-03-15T02:12:00;100633;;;3.56;74.64
57250;BME280;43102;52.014;-0.680;2023-03-15T02:13:00;100630;;;3.52;74.64
57250;BME280;43102;52.014;-0.680;2023-03-15T02:14:00;100630;;;3.52;74.64
57250;BME280;43102;52.014;-0.680;2023-03-15T02:15:00;100630;;;3.52;74.64
57250;BME280;43102;52.014;-0.680;2023-03-15T02:16:00;100630;;;3.52;74.64
57250;BME280;43102;52.014;-0.680;2023-03-15T02:17:00;100630;;;3.52;74.64
57250;BME280;43102;52.014;-0.680;2023-03-15T02:18:00;100624;;;3.50;74.64
57250;BME280;43102;52.014;-0.680;2023-03-15T02:19:00;100624;;;3.50;74.64
57250;BME280;43102;52.014;-0.680;2023-03-15T02:21:06;100624;;;3.50;74.64
57250;BME280;43102;52.014;-0.680;2023-03-15T02:22:05;100624;;;3.50;74.64
57250;BME280;43102;52.014;-0.680;2023-03-15T02:23:08;100621;;;3.45;74.65
57250;BME280;43102;52.014;-0.680;2023-03-15T02:24:04;100621;;;3.45;74.65
57250;BME280;43102;52.014;-0.680;2023-03-15T02:27:00;100621;;;3.45;74.65
57250;BME280;43102;52.014;-0.680;2023-03-15T02:28:00;100620;;;3.40;74.70
57250;BME280;43102;52.014;-0.680;2023-03-15T02:29:00;100620;;;3.40;74.70
57250;BME280;43102;52.014;-0.680;2023-03-15T02:30:00;100620;;;3.40;74.70
57250;BME280;43102;52.014;-0.680;2023-03-15T02:31:00;100620;;;3.40;74.70
57250;BME280;43102;52.014;-0.680;2023-03-15T02:32:00;100620;;;3.40;74.70
57250;BME280;43102;52.014;-0.680;2023-03-15T02:33:00;100617;;;3.39;74.75
57250;BME280;43102;52.014;-0.680;2023-03-15T02:34:00;100617;;;3.39;74.75
57250;BME280;43102;52.014;-0.680;2023-03-15T02:35:00;100617;;;3.39;74.75
57250;BME280;43102;52.014;-0.680;2023-03-15T02:36:06;100617;;;3.39;74.75
57250;BME280;43102;52.014;-0.680;2023-03-15T02:37:00;100617;;;3.39;74.75
57250;BME280;43102;52.014;-0.680;2023-03-15T02:38:00;100618;;;3.36;74.77
57250;BME280;43102;52.014;-0.680;2023-03-15T02:39:00;100618;;;3.36;74.77
57250;BME280;43102;52.014;-0.680;2023-03-15T02:40:00;100618;;;3.36;74.77
57250;BME280;43102;52.014;-0.680;2023-03-15T02:41:00;100618;;;3.36;74.77
57250;BME280;43102;52.014;-0.680;2023-03-15T02:42:00;100618;;;3.36;74.77
57250;BME280;43102;52.014;-0.680;2023-03-15T02:43:02;100628;;;3.31;74.73
57250;BME280;43102;52.014;-0.680;2023-03-15T02:44:03;100628;;;3.31;74.73
57250;BME280;43102;52.014;-0.680;2023-03-15T02:45:00;100628;;;3.31;74.73
57250;BME280;43102;52.014;-0.680;2023-03-15T02:46:00;100628;;;3.31;74.73
57250;BME280;43102;52.014;-0.680;2023-03-15T02:47:02;100628;;;3.31;74.73
57250;BME280;43102;52.014;-0.680;2023-03-15T02:48:00;100641;;;3.29;74.81
57250;BME280;43102;52.014;-0.680;2023-03-15T02:49:00;100641;;;3.29;74.81
57250;BME280;43102;52.014;-0.680;2023-03-15T02:50:00;100641;;;3.29;74.81
57250;BME280;43102;52.014;-0.680;2023-03-15T02:51:00;100641;;;3.29;74.81
57250;BME280;43102;52.014;-0.680;2023-03-15T02:52:00;100641;;;3.29;74.81
57250;BME280;43102;52.014;-0.680;2023-03-15T02:53:00;100647;;;3.25;74.75
57250;BME280;43102;52.014;-0.680;2023-03-15T02:54:00;100647;;;3.25;74.75
57250;BME280;43102;52.014;-0.680;2023-03-15T02:55:00;100647;;;3.25;74.75
57250;BME280;43102;52.014;-0.680;2023-03-15T02:56:00;100647;;;3.25;74.75
57250;BME280;43102;52.014;-0.680;2023-03-15T02:57:00;100647;;;3.25;74.75
57250;BME280;43102;52.014;-0.680;2023-03-15T02:58:00;100645;;;3.24;74.93
57250;BME280;43102;52.014;-0.680;2023-03-15T02:59:00;100645;;;3.24;74.93
57250;BME280;43102;52.014;-0.680;2023-03-15T03:00:00;100645;;;3.24;74.93
57250;BME280;43102;52.014;-0.680;2023-03-15T03:01:00;100645;;;3.24;74.93
57250;BME280;43102;52.014;-0.680;2023-03-15T03:02:00;100645;;;3.24;74.93
57250;BME280;43102;52.014;-0.680;2023-03-15T03:03:00;100634;;;3.23;75.04
57250;BME280;43102;52.014;-0.680;2023-03-15T03:04:00;100634;;;3.23;75.04
57250;BME280;43102;52.014;-0.680;2023-03-15T03:05:00;100634;;;3.23;75.04
57250;BME280;43102;52.014;-0.680;2023-03-15T03:06:00;100634;;;3.23;75.04
57250;BME280;43102;52.014;-0.680;2023-03-15T03:07:00;100634;;;3.23;75.04
57250;BME280;43102;52.014;-0.680;2023-03-15T03:08:00;100636;;;3.20;75.03
57250;BME280;43102;52.014;-0.680;2023-03-15T03:09:00;100636;;;3.20;75.03
57250;BME280;43102;52.014;-0.680;2023-03-15T03:10:00;100636;;;3.20;75.03
57250;BME280;43102;52.014;-0.680;2023-03-15T03:11:00;100636;;;3.20;75.03
57250;BME280;43102;52.014;-0.680;2023-03-15T03:12:00;100636;;;3.20;75.03
57250;BME280;43102;52.014;-0.680;2023-03-15T03:13:00;100637;;;3.19;75.10
57250;BME280;43102;52.014;-0.680;2023-03-15T03:14:00;100637;;;3.19;75.10
57250;BME280;43102;52.014;-0.680;2023-03-15T03:15:00;100637;;;3.19;75.10
57250;BME280;43102;52.014;-0.680;2023-03-15T03:16:00;100637;;;3.19;75.10
57250;BME280;43102;52.014;-0.680;2023-03-15T03:17:00;100637;;;3.19;75.10
57250;BME280;43102;52.014;-0.680;2023-03-15T03:18:00;100635;;;3.16;75.07
57250;BME280;43102;52.014;-0.680;2023-03-15T03:19:00;100635;;;3.16;75.07
57250;BME280;43102;52.014;-0.680;2023-03-15T03:20:00;100635;;;3.16;75.07
57250;BME280;43102;52.014;-0.680;2023-03-15T03:21:01;100635;;;3.16;75.07
57250;BME280;43102;52.014;-0.680;2023-03-15T03:22:00;100635;;;3.16;75.07
57250;BME280;43102;52.014;-0.680;2023-03-15T03:23:00;100644;;;3.14;75.03
57250;BME280;43102;52.014;-0.680;2023-03-15T03:24:00;100644;;;3.14;75.03
57250;BME280;43102;52.014;-0.680;2023-03-15T03:25:00;100644;;;3.14;75.03
57250;BME280;43102;52.014;-0.680;2023-03-15T03:26:00;100644;;;3.14;75.03
57250;BME280;43102;52.014;-0.680;2023-03-15T03:27:00;100644;;;3.14;75.03
57250;BME280;43102;52.014;-0.680;2023-03-15T03:28:00;100652;;;3.10;75.21
57250;BME280;43102;52.014;-0.680;2023-03-15T03:29:00;100652;;;3.10;75.21
57250;BME280;43102;52.014;-0.680;2023-03-15T03:30:00;100652;;;3.10;75.21
57250;BME280;43102;52.014;-0.680;2023-03-15T03:31:00;100652;;;3.10;75.21
57250;BME280;43102;52.014;-0.680;2023-03-15T03:32:00;100652;;;3.10;75.21
57250;BME280;43102;52.014;-0.680;2023-03-15T03:33:00;100667;;;3.08;75.14
57250;BME280;43102;52.014;-0.680;2023-03-15T03:34:00;100667;;;3.08;75.14
57250;BME280;43102;52.014;-0.680;2023-03-15T03:35:00;100667;;;3.08;75.14
57250;BME280;43102;52.014;-0.680;2023-03-15T03:36:00;100667;;;3.08;75.14
57250;BME280;43102;52.014;-0.680;2023-03-15T03:37:00;100667;;;3.08;75.14
57250;BME280;43102;52.014;-0.680;2023-03-15T03:38:00;100678;;;3.08;75.18
57250;BME280;43102;52.014;-0.680;2023-03-15T03:39:00;100678;;;3.08;75.18
57250;BME280;43102;52.014;-0.680;2023-03-15T03:40:00;100678;;;3.08;75.18
57250;BME280;43102;52.014;-0.680;2023-03-15T03:41:00;100678;;;3.08;75.18
57250;BME280;43102;52.014;-0.680;2023-03-15T03:42:00;100678;;;3.08;75.18
57250;BME280;43102;52.014;-0.680;2023-03-15T03:43:00;100683;;;3.01;75.04
57250;BME280;43102;52.014;-0.680;2023-03-15T03:44:00;100683;;;3.01;75.04
57250;BME280;43102;52.014;-0.680;2023-03-15T03:45:00;100683;;;3.01;75.04
57250;BME280;43102;52.014;-0.680;2023-03-15T03:46:00;100683;;;3.01;75.04
57250;BME280;43102;52.014;-0.680;2023-03-15T03:47:00;100683;;;3.01;75.04
57250;BME280;43102;52.014;-0.680;2023-03-15T03:48:00;100689;;;2.99;75.06
57250;BME280;43102;52.014;-0.680;2023-03-15T03:49:00;100689;;;2.99;75.06
57250;BME280;43102;52.014;-0.680;2023-03-15T03:50:00;100689;;;2.99;75.06
57250;BME280;43102;52.014;-0.680;2023-03-15T03:51:00;100689;;;2.99;75.06
57250;BME280;43102;52.014;-0.680;2023-03-15T03:52:00;100689;;;2.99;75.06
57250;BME280;43102;52.014;-0.680;2023-03-15T03:53:00;100689;;;2.96;75.02
57250;BME280;43102;52.014;-0.680;2023-03-15T03:54:00;100689;;;2.96;75.02
57250;BME280;43102;52.014;-0.680;2023-03-15T03:55:00;100689;;;2.96;75.02
57250;BME280;43102;52.014;-0.680;2023-03-15T03:56:02;100689;;;2.96;75.02
57250;BME280;43102;52.014;-0.680;2023-03-15T03:57:00;100689;;;2.96;75.02
57250;BME280;43102;52.014;-0.680;2023-03-15T03:58:00;100687;;;2.94;75.23
57250;BME280;43102;52.014;-0.680;2023-03-15T03:59:00;100687;;;2.94;75.23
57250;BME280;43102;52.014;-0.680;2023-03-15T04:00:00;100687;;;2.94;75.23
57250;BME280;43102;52.014;-0.680;2023-03-15T04:01:00;100687;;;2.94;75.23
57250;BME280;43102;52.014;-0.680;2023-03-15T04:02:00;100687;;;2.94;75.23
57250;BME280;43102;52.014;-0.680;2023-03-15T04:03:00;100686;;;2.94;75.29
57250;BME280;43102;52.014;-0.680;2023-03-15T04:04:00;100686;;;2.94;75.29
57250;BME280;43102;52.014;-0.680;2023-03-15T04:05:00;100686;;;2.94;75.29
57250;BME280;43102;52.014;-0.680;2023-03-15T04:06:00;100686;;;2.94;75.29
57250;BME280;43102;52.014;-0.680;2023-03-15T04:07:00;100686;;;2.94;75.29
57250;BME280;43102;52.014;-0.680;2023-03-15T04:08:00;100683;;;2.90;75.32
57250;BME280;43102;52.014;-0.680;2023-03-15T04:09:00;100683;;;2.90;75.32
57250;BME280;43102;52.014;-0.680;2023-03-15T04:10:00;100683;;;2.90;75.32
57250;BME280;43102;52.014;-0.680;2023-03-15T04:11:00;100683;;;2.90;75.32
57250;BME280;43102;52.014;-0.680;2023-03-15T04:12:00;100683;;;2.90;75.32
57250;BME280;43102;52.014;-0.680;2023-03-15T04:13:00;100682;;;2.88;75.22
57250;BME280;43102;52.014;-0.680;2023-03-15T04:14:00;100682;;;2.88;75.22
57250;BME280;43102;52.014;-0.680;2023-03-15T04:15:00;100682;;;2.88;75.22
57250;BME280;43102;52.014;-0.680;2023-03-15T04:16:00;100682;;;2.88;75.22
57250;BME280;43102;52.014;-0.680;2023-03-15T04:17:00;100682;;;2.88;75.22
57250;BME280;43102;52.014;-0.680;2023-03-15T04:18:00;100672;;;2.84;75.16
57250;BME280;43102;52.014;-0.680;2023-03-15T04:19:00;100672;;;2.84;75.16
57250;BME280;43102;52.014;-0.680;2023-03-15T04:20:00;100672;;;2.84;75.16
57250;BME280;43102;52.014;-0.680;2023-03-15T04:21:00;100672;;;2.84;75.16
57250;BME280;43102;52.014;-0.680;2023-03-15T04:22:00;100672;;;2.84;75.16
57250;BME280;43102;52.014;-0.680;2023-03-15T04:23:00;100686;;;2.79;75.17
57250;BME280;43102;52.014;-0.680;2023-03-15T04:24:00;100686;;;2.79;75.17
57250;BME280;43102;52.014;-0.680;2023-03-15T04:25:00;100686;;;2.79;75.17
57250;BME280;43102;52.014;-0.680;2023-03-15T04:26:00;100686;;;2.79;75.17
57250;BME280;43102;52.014;-0.680;2023-03-15T04:27:00;100686;;;2.79;75.17
57250;BME280;43102;52.014;-0.680;2023-03-15T04:28:00;100688;;;2.80;75.40
57250;BME280;43102;52.014;-0.680;2023-03-15T04:29:00;100688;;;2.80;75.40
57250;BME280;43102;52.014;-0.680;2023-03-15T04:30:00;100688;;;2.80;75.40
57250;BME280;43102;52.014;-0.680;2023-03-15T04:31:00;100688;;;2.80;75.40
57250;BME280;43102;52.014;-0.680;2023-03-15T04:32:00;100688;;;2.80;75.40
57250;BME280;43102;52.014;-0.680;2023-03-15T04:33:00;100697;;;2.78;75.40
57250;BME280;43102;52.014;-0.680;2023-03-15T04:34:00;100697;;;2.78;75.40
57250;BME280;43102;52.014;-0.680;2023-03-15T04:35:00;100697;;;2.78;75.40
57250;BME280;43102;52.014;-0.680;2023-03-15T04:36:00;100697;;;2.78;75.40
57250;BME280;43102;52.014;-0.680;2023-03-15T04:37:00;100697;;;2.78;75.40
57250;BME280;43102;52.014;-0.680;2023-03-15T04:38:00;100697;;;2.75;75.40
57250;BME280;43102;52.014;-0.680;2023-03-15T04:39:00;100697;;;2.75;75.40
57250;BME280;43102;52.014;-0.680;2023-03-15T04:40:00;100697;;;2.75;75.40
57250;BME280;43102;52.014;-0.680;2023-03-15T04:41:00;100697;;;2.75;75.40
57250;BME280;43102;52.014;-0.680;2023-03-15T04:42:00;100697;;;2.75;75.40
57250;BME280;43102;52.014;-0.680;2023-03-15T04:43:01;100694;;;2.72;75.36
57250;BME280;43102;52.014;-0.680;2023-03-15T04:44:01;100694;;;2.72;75.36
57250;BME280;43102;52.014;-0.680;2023-03-15T04:45:00;100694;;;2.72;75.36
57250;BME280;43102;52.014;-0.680;2023-03-15T04:46:00;100694;;;2.72;75.36
57250;BME280;43102;52.014;-0.680;2023-03-15T04:47:00;100694;;;2.72;75.36
57250;BME280;43102;52.014;-0.680;2023-03-15T04:48:00;100698;;;2.68;75.27
57250;BME280;43102;52.014;-0.680;2023-03-15T04:49:00;100698;;;2.68;75.27
57250;BME280;43102;52.014;-0.680;2023-03-15T04:50:00;100698;;;2.68;75.27
57250;BME280;43102;52.014;-0.680;2023-03-15T04:51:00;100698;;;2.68;75.27
57250;BME280;43102;52.014;-0.680;2023-03-15T04:52:00;100698;;;2.68;75.27
57250;BME280;43102;52.014;-0.680;2023-03-15T04:53:00;100693;;;2.67;75.29
57250;BME280;43102;52.014;-0.680;2023-03-15T04:54:00;100693;;;2.67;75.29
57250;BME280;43102;52.014;-0.680;2023-03-15T04:55:00;100693;;;2.67;75.29
57250;BME280;43102;52.014;-0.680;2023-03-15T04:56:00;100693;;;2.67;75.29
57250;BME280;43102;52.014;-0.680;2023-03-15T04:57:00;100693;;;2.67;75.29
57250;BME280;43102;52.014;-0.680;2023-03-15T04:58:00;100697;;;2.59;75.40
57250;BME280;43102;52.014;-0.680;2023-03-15T04:59:00;100697;;;2.59;75.40
57250;BME280;43102;52.014;-0.680;2023-03-15T05:00:00;100697;;;2.59;75.40
57250;BME280;43102;52.014;-0.680;2023-03-15T05:01:00;100697;;;2.59;75.40
57250;BME280;43102;52.014;-0.680;2023-03-15T05:02:00;100697;;;2.59;75.40
57250;BME280;43102;52.014;-0.680;2023-03-15T05:03:00;100688;;;2.54;75.43
57250;BME280;43102;52.014;-0.680;2023-03-15T05:04:00;100688;;;2.54;75.43
57250;BME280;43102;52.014;-0.680;2023-03-15T05:05:00;100688;;;2.54;75.43
57250;BME280;43102;52.014;-0.680;2023-03-15T05:06:01;100688;;;2.54;75.43
57250;BME280;43102;52.014;-0.680;2023-03-15T05:07:00;100688;;;2.54;75.43
57250;BME280;43102;52.014;-0.680;2023-03-15T05:08:00;100693;;;2.46;75.46
57250;BME280;43102;52.014;-0.680;2023-03-15T05:09:00;100693;;;2.46;75.46
57250;BME280;43102;52.014;-0.680;2023-03-15T05:10:00;100693;;;2.46;75.46
57250;BME280;43102;52.014;-0.680;2023-03-15T05:11:00;100693;;;2.46;75.46
57250;BME280;43102;52.014;-0.680;2023-03-15T05:12:00;100693;;;2.46;75.46
57250;BME280;43102;52.014;-0.680;2023-03-15T05:13:00;100699;;;2.47;75.49
57250;BME280;43102;52.014;-0.680;2023-03-15T05:14:00;100699;;;2.47;75.49
57250;BME280;43102;52.014;-0.680;2023-03-15T05:15:00;100699;;;2.47;75.49
57250;BME280;43102;52.014;-0.680;2023-03-15T05:16:00;100699;;;2.47;75.49
57250;BME280;43102;52.014;-0.680;2023-03-15T05:17:00;100699;;;2.47;75.49
57250;BME280;43102;52.014;-0.680;2023-03-15T05:18:00;100703;;;2.49;75.39
57250;BME280;43102;52.014;-0.680;2023-03-15T05:19:00;100703;;;2.49;75.39
57250;BME280;43102;52.014;-0.680;2023-03-15T05:20:00;100703;;;2.49;75.39
57250;BME280;43102;52.014;-0.680;2023-03-15T05:21:00;100703;;;2.49;75.39
57250;BME280;43102;52.014;-0.680;2023-03-15T05:22:00;100703;;;2.49;75.39
57250;BME280;43102;52.014;-0.680;2023-03-15T05:23:00;100705;;;2.45;75.37
57250;BME280;43102;52.014;-0.680;2023-03-15T05:24:00;100705;;;2.45;75.37
57250;BME280;43102;52.014;-0.680;2023-03-15T05:25:00;100705;;;2.45;75.37
57250;BME280;43102;52.014;-0.680;2023-03-15T05:26:00;100705;;;2.45;75.37
57250;BME280;43102;52.014;-0.680;2023-03-15T05:27:00;100705;;;2.45;75.37
57250;BME280;43102;52.014;-0.680;2023-03-15T05:28:00;100699;;;2.40;75.29
57250;BME280;43102;52.014;-0.680;2023-03-15T05:29:00;100699;;;2.40;75.29
57250;BME280;43102;52.014;-0.680;2023-03-15T05:30:00;100699;;;2.40;75.29
57250;BME280;43102;52.014;-0.680;2023-03-15T05:31:00;100699;;;2.40;75.29